KUNU/UNU METAR and TAF weather

Enter ICAO airport designator
Station Type Date Time Source
KUNU METAR 2020/07/10 00:35 UTC NOAA

KUNU 100035Z AUTO 25004KT 3SM +TSRA SCT015 BKN034 OVC050 20/20 A2986 RMK AO2 LTG DSNT ALQDS P0047 T01980195


Station Type Date Time Source
KUNU Decoded METAR 2020/07/10 00:35 UTC NOAA

Juneau, Dodge County Airport, WI, United States (KUNU) 43-25-36N 088-42-12W
Jul 09, 2020 - 08:35 PM EDT / 2020.07.10 0035 UTC
Wind: from the WSW (250 degrees) at 5 MPH (4 KT):0
Visibility: 3 mile(s):0
Sky conditions: overcast
Weather: heavy rain with thunder; Lightning observed
Precipitation last hour: 0.47 inches
Temperature: 67.6 F (19.8 C)
Dew Point: 67.1 F (19.5 C)
Relative Humidity: 98%
Pressure (altimeter): 29.86 in. Hg (1011 hPa)
ob: KUNU 100035Z AUTO 25004KT 3SM +TSRA SCT015 BKN034 OVC050 20/20 A2986 RMK AO2 LTG DSNT ALQDS P0047 T01980195
cycle: 0

Station Type Date Time Source
KUNU TAF UTC NOAA

Error!

Example: see airport list